createdAt,value
2022-11-20T00:01:05.105Z,0.73
2022-11-20T00:03:31.308Z,0.74
2022-11-20T00:06:03.939Z,0.74
2022-11-20T00:08:30.155Z,0.75
2022-11-20T00:10:56.360Z,0.74
2022-11-20T00:13:22.573Z,0.78
2022-11-20T00:15:48.768Z,0.75
2022-11-20T00:18:15.061Z,0.73
2022-11-20T00:20:41.277Z,0.75
2022-11-20T00:23:07.495Z,0.74
2022-11-20T00:25:36.788Z,0.73
2022-11-20T00:28:02.992Z,0.77
2022-11-20T00:30:29.184Z,0.79
2022-11-20T00:32:56.999Z,0.80
2022-11-20T00:35:23.192Z,0.81
2022-11-20T00:37:49.391Z,0.80
2022-11-20T00:40:15.592Z,0.79
2022-11-20T00:42:41.792Z,0.80
2022-11-20T00:45:08.085Z,0.80
2022-11-20T00:47:34.301Z,0.81
2022-11-20T00:50:00.496Z,0.84
2022-11-20T00:52:26.700Z,0.84
2022-11-20T00:54:52.907Z,0.86
2022-11-20T00:57:19.121Z,0.89
2022-11-20T00:59:45.324Z,0.87
2022-11-20T01:02:11.528Z,0.87
2022-11-20T01:04:37.739Z,0.85
2022-11-20T01:07:03.973Z,0.84
2022-11-20T01:09:30.209Z,0.84
2022-11-20T01:11:56.413Z,0.88
2022-11-20T01:14:22.616Z,0.85
2022-11-20T01:16:49.746Z,0.81
2022-11-20T01:19:18.129Z,0.81
2022-11-20T01:21:44.968Z,0.82
2022-11-20T01:24:12.117Z,0.83
2022-11-20T01:26:38.719Z,0.82
2022-11-20T01:29:04.996Z,0.81
2022-11-20T01:31:32.021Z,0.80
2022-11-20T01:33:59.148Z,0.80
2022-11-20T01:36:26.268Z,0.78
2022-11-20T01:38:52.854Z,0.80
2022-11-20T01:41:19.048Z,0.78
2022-11-20T01:43:45.251Z,0.76
2022-11-20T01:46:14.244Z,0.75
2022-11-20T01:49:09.577Z,0.75
2022-11-20T01:51:40.119Z,0.69
2022-11-20T01:54:07.843Z,0.71
2022-11-20T01:56:34.799Z,0.71
2022-11-20T01:59:01.001Z,0.74
2022-11-20T02:01:27.270Z,0.75
2022-11-20T02:03:53.518Z,0.72
2022-11-20T02:06:30.145Z,0.73
2022-11-20T02:08:56.348Z,0.75
2022-11-20T02:11:22.557Z,0.75
2022-11-20T02:13:48.771Z,0.75
2022-11-20T02:16:14.930Z,0.76
2022-11-20T02:18:41.175Z,0.76
2022-11-20T02:21:08.129Z,0.76
2022-11-20T02:23:38.487Z,0.77
2022-11-20T02:26:05.097Z,0.74
2022-11-20T02:28:31.329Z,0.75
2022-11-20T02:30:57.540Z,0.74
2022-11-20T02:33:23.745Z,0.76
2022-11-20T02:35:49.939Z,0.78
2022-11-20T02:38:16.200Z,0.76
2022-11-20T02:40:42.426Z,0.77
2022-11-20T02:43:08.689Z,0.76
2022-11-20T02:45:34.895Z,0.78
2022-11-20T02:48:01.092Z,0.73
2022-11-20T02:50:27.317Z,0.72
2022-11-20T02:52:53.520Z,0.72
2022-11-20T02:55:19.728Z,0.71
2022-11-20T02:57:46.100Z,0.71
2022-11-20T03:00:12.641Z,0.72
2022-11-20T03:02:38.845Z,0.74
2022-11-20T03:05:05.047Z,0.73
2022-11-20T03:07:31.312Z,0.72
2022-11-20T03:09:57.558Z,0.74
2022-11-20T03:12:23.765Z,0.75
2022-11-20T03:14:52.998Z,0.73
2022-11-20T03:17:19.567Z,0.72
2022-11-20T03:19:45.769Z,0.73
2022-11-20T03:22:11.979Z,0.72
2022-11-20T03:24:38.193Z,0.73
2022-11-20T03:27:04.393Z,0.72
2022-11-20T03:29:30.596Z,0.69
2022-11-20T03:31:56.793Z,0.71
2022-11-20T03:34:23.146Z,0.70
2022-11-20T03:36:49.428Z,0.71
2022-11-20T03:39:15.749Z,0.73
2022-11-20T03:41:42.109Z,0.71
2022-11-20T03:44:13.772Z,0.67
2022-11-20T03:46:42.896Z,0.65
2022-11-20T03:49:09.233Z,0.64
2022-11-20T03:51:35.944Z,0.64
2022-11-20T03:54:03.311Z,0.64
2022-11-20T03:56:30.387Z,0.67
2022-11-20T03:58:59.149Z,0.64
2022-11-20T04:01:26.528Z,0.65
2022-11-20T04:03:53.194Z,0.66
2022-11-20T04:06:20.419Z,0.66
2022-11-20T04:08:53.622Z,0.62
2022-11-20T04:11:30.252Z,0.64
2022-11-20T04:14:00.149Z,0.67
2022-11-20T04:16:30.229Z,0.67
2022-11-20T04:18:59.700Z,0.67
2022-11-20T04:21:25.956Z,0.64
2022-11-20T04:23:52.299Z,0.67
2022-11-20T04:26:26.200Z,0.64
2022-11-20T04:28:52.601Z,0.64
2022-11-20T04:34:03.465Z,0.66
2022-11-20T04:36:29.867Z,0.69
2022-11-20T04:41:47.839Z,0.64
2022-11-20T04:44:14.064Z,0.66
2022-11-20T04:46:46.043Z,0.66
2022-11-20T04:49:12.525Z,0.67
2022-11-20T04:51:38.836Z,0.64
2022-11-20T04:54:05.091Z,0.65
2022-11-20T04:56:31.355Z,0.68
2022-11-20T04:59:00.484Z,0.69
2022-11-20T05:01:26.722Z,0.66
2022-11-20T05:03:53.076Z,0.64
2022-11-20T05:06:19.974Z,0.70
2022-11-20T05:08:46.175Z,0.70
2022-11-20T05:11:16.241Z,0.72
2022-11-20T05:13:42.470Z,0.70
2022-11-20T05:16:18.749Z,0.73
2022-11-20T05:18:45.246Z,0.74
2022-11-20T05:21:11.497Z,0.72
2022-11-20T05:23:37.741Z,0.71
2022-11-20T05:26:04.161Z,0.72
2022-11-20T05:28:30.458Z,0.72
2022-11-20T05:30:56.729Z,0.69
2022-11-20T05:33:22.973Z,0.65
2022-11-20T05:35:49.225Z,0.70
2022-11-20T05:38:15.511Z,0.67
2022-11-20T05:40:41.709Z,0.70
2022-11-20T05:43:07.921Z,0.72
2022-11-20T05:45:34.127Z,0.73
2022-11-20T05:48:00.521Z,0.73
2022-11-20T05:50:27.471Z,0.72
2022-11-20T05:52:53.676Z,0.71
2022-11-20T05:55:19.881Z,0.69
2022-11-20T05:57:46.092Z,0.71
2022-11-20T06:00:12.534Z,0.73
2022-11-20T06:02:38.825Z,0.75
2022-11-20T06:05:05.216Z,0.75
2022-11-20T06:07:31.476Z,0.75
2022-11-20T06:09:57.734Z,0.76
2022-11-20T06:12:23.949Z,0.77
2022-11-20T06:14:50.162Z,0.76
2022-11-20T06:17:16.378Z,0.76
2022-11-20T06:19:42.586Z,0.77
2022-11-20T06:22:08.788Z,0.77
2022-11-20T06:24:34.988Z,0.79
2022-11-20T06:27:01.198Z,0.77
2022-11-20T06:29:31.386Z,0.78
2022-11-20T06:31:59.917Z,0.77
2022-11-20T06:34:26.115Z,0.77
2022-11-20T06:36:52.330Z,0.83
2022-11-20T06:39:18.687Z,0.81
2022-11-20T06:41:45.027Z,0.81
2022-11-20T06:44:11.237Z,0.81
2022-11-20T06:46:37.454Z,0.83
2022-11-20T06:49:03.654Z,0.84
2022-11-20T06:51:29.855Z,0.82
2022-11-20T06:53:56.056Z,0.89
2022-11-20T06:56:22.258Z,0.92
2022-11-20T06:58:48.472Z,0.93
2022-11-20T07:01:15.049Z,0.94
2022-11-20T07:03:41.459Z,0.99
2022-11-20T07:06:07.783Z,0.97
2022-11-20T07:08:34.123Z,0.98
2022-11-20T07:11:00.812Z,0.99
2022-11-20T07:13:27.500Z,0.99
2022-11-20T07:15:53.701Z,0.94
2022-11-20T07:18:19.910Z,0.97
2022-11-20T07:20:46.113Z,0.96
2022-11-20T07:23:12.331Z,0.98
2022-11-20T07:25:38.524Z,0.97
2022-11-20T07:28:04.784Z,0.97
2022-11-20T07:30:30.990Z,0.95
2022-11-20T07:32:57.200Z,1.01
2022-11-20T07:35:23.727Z,1.03
2022-11-20T07:37:49.936Z,1.07
2022-11-20T07:40:16.615Z,1.12
2022-11-20T07:42:53.000Z,1.11
2022-11-20T07:45:19.545Z,1.11
2022-11-20T07:47:45.771Z,1.11
2022-11-20T07:50:12.277Z,1.13
2022-11-20T07:52:38.500Z,1.16
2022-11-20T07:55:04.910Z,1.23
2022-11-20T07:57:31.115Z,1.23
2022-11-20T07:59:57.322Z,1.28
2022-11-20T08:02:23.815Z,1.28
2022-11-20T08:04:50.036Z,1.32
2022-11-20T08:07:16.272Z,1.35
2022-11-20T08:09:42.505Z,1.38
2022-11-20T08:12:08.782Z,1.40
2022-11-20T08:14:34.999Z,1.47
2022-11-20T08:17:01.193Z,1.55
2022-11-20T08:19:27.416Z,1.59
2022-11-20T08:21:53.616Z,1.78
2022-11-20T08:24:19.823Z,1.79
2022-11-20T08:26:46.024Z,1.83
2022-11-20T08:29:12.230Z,1.87
2022-11-20T08:31:38.426Z,1.91
2022-11-20T08:34:08.939Z,2.01
2022-11-20T08:36:35.776Z,1.98
2022-11-20T08:39:01.993Z,1.99
2022-11-20T08:41:28.191Z,2.10
2022-11-20T08:43:58.199Z,2.13
2022-11-20T08:46:25.091Z,2.11
2022-11-20T08:48:51.298Z,2.11
2022-11-20T08:51:17.536Z,1.94
2022-11-20T08:53:43.768Z,2.18
2022-11-20T08:56:10.013Z,2.19
2022-11-20T08:58:55.339Z,2.30
2022-11-20T09:01:23.086Z,2.23
2022-11-20T09:03:49.424Z,2.17
2022-11-20T09:06:15.633Z,2.15
2022-11-20T09:08:41.845Z,2.02
2022-11-20T09:11:08.167Z,2.03
2022-11-20T09:13:34.709Z,2.04
2022-11-20T09:16:01.721Z,2.06
2022-11-20T09:18:28.189Z,2.09
2022-11-20T09:20:57.756Z,2.09
2022-11-20T09:23:23.966Z,2.06
2022-11-20T09:25:50.200Z,1.97
2022-11-20T09:28:16.407Z,2.06
2022-11-20T09:30:42.627Z,2.13
2022-11-20T09:33:08.829Z,2.22
2022-11-20T09:35:35.037Z,2.58
2022-11-20T09:38:07.383Z,3.00
2022-11-20T09:40:33.597Z,3.44
2022-11-20T09:43:19.905Z,3.42
2022-11-20T09:45:52.090Z,3.39
2022-11-20T09:48:24.418Z,3.46
2022-11-20T09:51:03.217Z,3.20
2022-11-20T09:53:48.459Z,2.94
2022-11-20T09:56:19.749Z,2.93
2022-11-20T09:58:55.497Z,2.83
2022-11-20T10:01:27.072Z,2.74
2022-11-20T10:04:01.772Z,2.79
2022-11-20T10:06:30.134Z,2.87
2022-11-20T10:09:00.944Z,3.17
2022-11-20T10:11:34.014Z,3.24
2022-11-20T10:14:21.826Z,2.94
2022-11-20T10:17:02.432Z,2.83
2022-11-20T10:19:52.302Z,2.66
2022-11-20T10:22:51.045Z,2.66
2022-11-20T10:25:20.480Z,2.66
2022-11-20T10:27:50.038Z,2.43
2022-11-20T10:30:17.090Z,2.35
2022-11-20T10:32:43.958Z,2.33
2022-11-20T10:35:19.287Z,2.07
2022-11-20T10:37:45.910Z,1.98
2022-11-20T10:40:21.233Z,2.16
2022-11-20T10:42:54.975Z,2.11
2022-11-20T10:45:27.258Z,1.78
2022-11-20T10:48:02.595Z,1.77
2022-11-20T10:50:28.805Z,1.66
2022-11-20T10:52:57.050Z,1.85
2022-11-20T10:55:23.240Z,2.02
2022-11-20T10:57:53.594Z,2.31
2022-11-20T11:00:19.805Z,2.45
2022-11-20T11:02:49.076Z,2.62
2022-11-20T11:05:21.301Z,2.92
2022-11-20T11:07:49.754Z,3.44
2022-11-20T11:10:19.377Z,3.26
2022-11-20T11:12:48.574Z,4.05
2022-11-20T11:15:15.746Z,3.80
2022-11-20T11:17:47.176Z,3.70
2022-11-20T11:20:16.479Z,4.08
2022-11-20T11:22:46.859Z,3.94
2022-11-20T11:25:19.769Z,3.63
2022-11-20T11:27:49.529Z,3.43
2022-11-20T11:30:16.171Z,3.31
2022-11-20T11:32:42.399Z,3.52
2022-11-20T11:35:19.630Z,3.79
2022-11-20T11:37:45.838Z,4.25
2022-11-20T11:40:27.540Z,4.04
2022-11-20T11:42:55.160Z,3.43
2022-11-20T11:45:21.359Z,3.17
2022-11-20T11:47:47.792Z,3.39
2022-11-20T11:50:13.938Z,3.54
2022-11-20T11:52:45.010Z,3.40
2022-11-20T11:55:13.488Z,3.48
2022-11-20T11:57:55.623Z,3.39
2022-11-20T12:00:22.113Z,3.17
2022-11-20T12:02:48.298Z,3.18
2022-11-20T12:05:18.890Z,3.17
2022-11-20T12:07:48.960Z,3.01
2022-11-20T12:25:59.468Z,2.73
2022-11-20T12:28:44.378Z,2.70
2022-11-20T12:31:23.706Z,2.73
2022-11-20T12:33:49.864Z,2.79
2022-11-20T12:36:16.017Z,2.90
2022-11-20T12:38:46.069Z,2.92
2022-11-20T12:41:28.702Z,2.92
2022-11-20T12:44:18.187Z,2.96
2022-11-20T12:46:47.827Z,2.80
2022-11-20T12:49:26.378Z,2.85
2022-11-20T12:51:58.738Z,2.90
2022-11-20T12:54:28.585Z,2.76
2022-11-20T12:57:04.155Z,2.80
2022-11-20T12:59:45.727Z,2.82
2022-11-20T13:02:11.886Z,2.73
2022-11-20T13:04:38.033Z,2.69
2022-11-20T13:07:04.947Z,2.62
2022-11-20T13:09:31.179Z,2.62
2022-11-20T13:11:57.660Z,2.70
2022-11-20T13:14:37.539Z,2.61
2022-11-20T13:17:27.131Z,2.61
2022-11-20T13:19:53.962Z,2.70
2022-11-20T13:22:46.652Z,2.48
2022-11-20T13:25:25.016Z,2.43
2022-11-20T13:27:51.215Z,2.44
2022-11-20T13:30:21.140Z,2.46
2022-11-20T13:32:54.415Z,2.47
2022-11-20T13:35:29.728Z,2.27
2022-11-20T13:38:05.975Z,2.24
2022-11-20T13:40:32.232Z,2.26
2022-11-20T13:42:58.387Z,2.31
2022-11-20T13:45:25.682Z,2.22
2022-11-20T13:47:52.149Z,2.04
2022-11-20T13:50:18.353Z,1.79
2022-11-20T13:52:53.827Z,1.68
2022-11-20T13:55:22.715Z,1.62
2022-11-20T13:58:06.753Z,1.62
2022-11-20T14:00:32.998Z,1.61
2022-11-20T14:02:59.281Z,1.57
2022-11-20T14:05:25.548Z,1.54
2022-11-20T14:07:52.025Z,1.49
2022-11-20T14:10:21.355Z,1.45
2022-11-20T14:12:47.566Z,1.42
2022-11-20T14:15:24.549Z,1.52
2022-11-20T14:17:50.786Z,1.55
2022-11-20T14:20:17.384Z,1.54
2022-11-20T14:22:50.232Z,1.50
2022-11-20T14:25:16.394Z,1.56
2022-11-20T14:27:44.979Z,1.36
2022-11-20T14:30:27.267Z,1.31
2022-11-20T14:33:01.337Z,1.27
2022-11-20T14:35:28.334Z,1.32
2022-11-20T14:37:54.791Z,1.24
2022-11-20T14:40:25.036Z,1.18
2022-11-20T14:42:51.262Z,1.12
2022-11-20T14:45:17.489Z,1.07
2022-11-20T14:47:43.697Z,0.98
2022-11-20T14:50:20.595Z,1.04
2022-11-20T14:52:53.440Z,0.99
2022-11-20T14:55:30.021Z,0.99
2022-11-20T14:57:56.873Z,1.03
2022-11-20T15:00:23.326Z,1.04
2022-11-20T15:02:50.096Z,1.02
2022-11-20T15:05:17.162Z,1.02
2022-11-20T15:07:44.296Z,0.99
2022-11-20T15:10:11.361Z,0.95
2022-11-20T15:12:50.232Z,0.99
2022-11-20T15:15:17.914Z,0.89
2022-11-20T15:17:44.116Z,0.78
2022-11-20T15:20:14.110Z,0.75
2022-11-20T15:22:40.333Z,0.81
2022-11-20T15:25:16.140Z,0.93
2022-11-20T15:27:45.518Z,0.98
2022-11-20T15:30:16.637Z,0.94
2022-11-20T15:32:42.850Z,1.03
2022-11-20T15:35:09.166Z,1.11
2022-11-20T15:37:35.397Z,1.11
2022-11-20T15:40:01.610Z,1.01
2022-11-20T15:42:27.828Z,0.98
2022-11-20T15:44:54.041Z,0.97
2022-11-20T15:47:20.901Z,0.96
2022-11-20T15:49:47.090Z,0.89
2022-11-20T15:52:13.295Z,1.00
2022-11-20T15:54:39.492Z,1.03
2022-11-20T15:57:05.693Z,0.94
2022-11-20T15:59:31.901Z,0.87
2022-11-20T16:01:58.151Z,0.95
2022-11-20T16:04:24.624Z,0.98
2022-11-20T16:06:51.079Z,0.86
2022-11-20T16:09:17.287Z,0.88
2022-11-20T16:11:43.492Z,0.91
2022-11-20T16:14:10.757Z,0.91
2022-11-20T16:16:37.327Z,0.97
2022-11-20T16:19:03.548Z,0.92
2022-11-20T16:21:29.770Z,0.84
2022-11-20T16:23:56.044Z,0.72
2022-11-20T16:26:22.262Z,0.73
2022-11-20T16:28:48.457Z,0.73
2022-11-20T16:31:15.446Z,0.66
2022-11-20T16:33:44.658Z,0.58
2022-11-20T16:36:11.374Z,0.62
2022-11-20T16:38:37.586Z,0.65
2022-11-20T16:41:06.301Z,0.59
2022-11-20T16:43:32.549Z,0.54
2022-11-20T16:45:58.884Z,0.46
2022-11-20T16:48:25.097Z,0.38
2022-11-20T16:50:52.123Z,0.35
2022-11-20T16:53:21.342Z,0.19
2022-11-20T16:55:47.800Z,0.00
2022-11-20T16:58:14.609Z,-0.18
2022-11-20T17:00:40.804Z,0.02
2022-11-20T17:03:07.050Z,-0.17
2022-11-20T17:05:33.427Z,-0.32
2022-11-20T17:07:59.707Z,-0.34
2022-11-20T17:10:25.916Z,-0.24
2022-11-20T17:12:52.131Z,-0.15
2022-11-20T17:15:18.355Z,-0.17
2022-11-20T17:17:44.592Z,-0.24
2022-11-20T17:20:10.889Z,-0.24
2022-11-20T17:22:37.110Z,-0.40
2022-11-20T17:25:03.405Z,-0.47
2022-11-20T17:27:29.627Z,-0.51
2022-11-20T17:29:55.830Z,-0.47
2022-11-20T17:32:22.032Z,-0.24
2022-11-20T17:34:48.265Z,-0.20
2022-11-20T17:37:14.480Z,-0.31
2022-11-20T17:39:40.685Z,-0.37
2022-11-20T17:42:06.896Z,-0.24
2022-11-20T17:44:33.502Z,-0.30
2022-11-20T17:46:59.730Z,-0.51
2022-11-20T17:49:26.001Z,-0.45
2022-11-20T17:51:52.212Z,-0.37
2022-11-20T17:54:18.412Z,-0.32
2022-11-20T17:56:44.621Z,-0.27
2022-11-20T17:59:11.456Z,-0.27
2022-11-20T18:01:37.849Z,-0.33
2022-11-20T18:04:04.596Z,-0.32
2022-11-20T18:06:31.028Z,-0.24
2022-11-20T18:09:00.604Z,-0.20
2022-11-20T18:11:27.454Z,-0.11
2022-11-20T18:13:58.421Z,-0.17
2022-11-20T18:16:24.620Z,-0.20
2022-11-20T18:18:53.355Z,-0.21
2022-11-20T18:21:19.566Z,-0.15
2022-11-20T18:23:45.771Z,-0.18
2022-11-20T18:26:11.988Z,-0.04
2022-11-20T18:28:38.286Z,-0.09
2022-11-20T18:31:05.362Z,0.03
2022-11-20T18:33:31.641Z,0.09
2022-11-20T18:35:58.007Z,0.14
2022-11-20T18:38:24.232Z,0.20
2022-11-20T18:40:50.470Z,0.24
2022-11-20T18:43:16.730Z,0.27
2022-11-20T18:45:42.973Z,0.32
2022-11-20T18:48:09.299Z,0.32
2022-11-20T18:50:42.986Z,0.31
2022-11-20T18:53:12.494Z,0.20
2022-11-20T18:55:38.757Z,0.17
2022-11-20T18:58:05.190Z,0.11
2022-11-20T19:00:31.404Z,0.04
2022-11-20T19:02:57.630Z,0.04
2022-11-20T19:05:23.873Z,-0.01
2022-11-20T19:07:50.087Z,-0.01
2022-11-20T19:10:18.105Z,-0.06
2022-11-20T19:12:44.324Z,-0.01
2022-11-20T19:15:10.557Z,-0.04
2022-11-20T19:17:36.798Z,-0.07
2022-11-20T19:20:03.014Z,-0.09
2022-11-20T19:22:29.227Z,-0.12
2022-11-20T19:24:55.468Z,-0.16
2022-11-20T19:27:21.712Z,-0.20
2022-11-20T19:29:47.986Z,-0.22
2022-11-20T19:32:14.198Z,-0.20
2022-11-20T19:34:40.416Z,-0.28
2022-11-20T19:37:06.642Z,-0.35
2022-11-20T19:39:32.883Z,-0.38
2022-11-20T19:41:59.090Z,-0.35
2022-11-20T19:44:25.330Z,-0.30
2022-11-20T19:46:51.536Z,-0.30
2022-11-20T19:49:17.848Z,-0.28
2022-11-20T19:51:45.013Z,-0.28
2022-11-20T19:54:11.270Z,-0.29
2022-11-20T19:56:37.477Z,-0.23
2022-11-20T19:59:03.692Z,-0.28
2022-11-20T20:01:30.449Z,-0.23
2022-11-20T20:03:57.298Z,-0.24
2022-11-20T20:06:24.283Z,-0.22
2022-11-20T20:08:57.171Z,-0.23
2022-11-20T20:11:23.674Z,-0.20
2022-11-20T20:13:49.881Z,-0.17
2022-11-20T20:16:16.964Z,-0.12
2022-11-20T20:18:43.170Z,-0.11
2022-11-20T20:21:10.085Z,-0.05
2022-11-20T20:23:36.319Z,-0.04
2022-11-20T20:26:02.682Z,-0.06
2022-11-20T20:28:28.921Z,-0.05
2022-11-20T20:30:55.160Z,0.01
2022-11-20T20:33:21.382Z,-0.04
2022-11-20T20:35:47.606Z,-0.04
2022-11-20T20:38:13.884Z,-0.01
2022-11-20T20:40:45.860Z,0.02
2022-11-20T20:43:13.599Z,0.02
2022-11-20T20:45:49.032Z,0.04
2022-11-20T20:48:15.611Z,0.04
2022-11-20T20:50:41.972Z,0.05
2022-11-20T20:53:08.287Z,0.08
2022-11-20T20:55:34.632Z,0.03
2022-11-20T20:58:00.912Z,0.03
2022-11-20T21:00:27.129Z,0.07
2022-11-20T21:02:53.338Z,0.10
2022-11-20T21:05:19.577Z,0.10
2022-11-20T21:07:45.878Z,0.13
2022-11-20T21:10:12.109Z,0.11
2022-11-20T21:12:38.361Z,0.11
2022-11-20T21:15:04.761Z,0.14
2022-11-20T21:17:30.956Z,0.14
2022-11-20T21:19:57.176Z,0.14
2022-11-20T21:22:23.388Z,0.14
2022-11-20T21:24:49.609Z,0.11
2022-11-20T21:27:15.811Z,0.13
2022-11-20T21:29:42.003Z,0.12
2022-11-20T21:32:08.214Z,0.15
2022-11-20T21:34:34.415Z,0.15
2022-11-20T21:37:00.618Z,0.16
2022-11-20T21:39:26.809Z,0.13
2022-11-20T21:41:53.017Z,0.06
2022-11-20T21:44:34.573Z,0.04
2022-11-20T21:47:01.046Z,-0.04
2022-11-20T21:49:27.249Z,-0.10
2022-11-20T21:51:53.473Z,-0.14
2022-11-20T21:54:19.680Z,-0.17
2022-11-20T21:56:45.917Z,-0.21
2022-11-20T21:59:12.394Z,-0.20
2022-11-20T22:01:38.702Z,-0.18
2022-11-20T22:04:05.051Z,-0.17
2022-11-20T22:06:31.971Z,-0.33
2022-11-20T22:08:58.172Z,-0.50
2022-11-20T22:11:24.389Z,-0.51
2022-11-20T22:13:50.598Z,-0.49
2022-11-20T22:16:16.808Z,-0.38
2022-11-20T22:18:43.486Z,-0.29
2022-11-20T22:21:09.704Z,-0.24
2022-11-20T22:23:35.918Z,-0.52
2022-11-20T22:26:02.961Z,-0.40
2022-11-20T22:28:29.161Z,-0.30
2022-11-20T22:30:58.939Z,-0.36
2022-11-20T22:33:25.697Z,-0.51
2022-11-20T22:35:51.910Z,-0.72
2022-11-20T22:38:18.117Z,-0.55
2022-11-20T22:40:44.313Z,-0.64
2022-11-20T22:43:10.534Z,-0.53
2022-11-20T22:45:36.741Z,-0.54
2022-11-20T22:48:02.999Z,-0.67
2022-11-20T22:50:29.205Z,-0.78
2022-11-20T22:52:55.415Z,-0.59
2022-11-20T22:55:21.613Z,-0.51
2022-11-20T22:57:47.830Z,-0.63
2022-11-20T23:00:14.261Z,-0.61
2022-11-20T23:02:43.844Z,-0.59
2022-11-20T23:05:10.049Z,-0.62
2022-11-20T23:07:40.830Z,-0.67
2022-11-20T23:10:07.437Z,-0.70
2022-11-20T23:12:33.644Z,-0.74
2022-11-20T23:14:59.859Z,-0.68
2022-11-20T23:17:26.069Z,-0.69
2022-11-20T23:19:52.267Z,-0.72
2022-11-20T23:22:18.477Z,-0.75
2022-11-20T23:24:44.674Z,-0.70
2022-11-20T23:27:10.894Z,-0.73
2022-11-20T23:29:37.126Z,-0.85
2022-11-20T23:32:03.353Z,-0.90
2022-11-20T23:34:29.689Z,-0.91
2022-11-20T23:36:55.965Z,-1.01
2022-11-20T23:39:22.176Z,-1.04
2022-11-20T23:41:48.401Z,-1.08
2022-11-20T23:44:14.602Z,-1.16
2022-11-20T23:46:40.807Z,-1.13
2022-11-20T23:49:07.066Z,-1.16
2022-11-20T23:51:33.265Z,-1.10
2022-11-20T23:54:04.607Z,-1.13
2022-11-20T23:56:31.194Z,-1.21
2022-11-20T23:58:57.416Z,-1.34
